Time;durP1;ratioP1;P1;durP2;ratioP2;P2;SDS_P1;SDS_P2;PMS_P1;PMS_P2;Temp;Humidity;BMP_temperature;BMP_pressure;BME280_temperature;BME280_humidity;BME280_pressure;Samples;Min_cycle;Max_cycle;Signal;HPM_P1;HPM_P2
2022/01/13 00:00:03;;;;;;;31.63;18.73;;;;;;;3.67;70.91;102721.81;5081775;28;20052;-87
2022/01/13 00:02:34;;;;;;;32.10;18.92;;;;;;;3.58;70.82;102726.69;5081471;28;20063;-86
2022/01/13 00:05:01;;;;;;;33.97;20.23;;;;;;;3.67;70.43;102724.56;5082401;28;20040;-87
2022/01/13 00:07:30;;;;;;;30.33;17.75;;;;;;;3.76;70.02;102733.47;5082217;28;20048;-87
2022/01/13 00:09:57;;;;;;;29.80;17.83;;;;;;;3.78;69.98;102737.72;5080478;28;20056;-87
2022/01/13 00:12:30;;;;;;;30.10;18.45;;;;;;;3.76;70.59;102736.22;5080299;28;20049;-87
2022/01/13 00:15:10;;;;;;;33.85;20.00;;;;;;;3.75;70.51;102738.16;5080745;28;20056;-87
2022/01/13 00:20:34;;;;;;;32.22;18.77;;;;;;;3.89;69.77;102752.78;5080517;28;19908;-87
2022/01/13 00:25:53;;;;;;;27.80;17.88;;;;;;;4.10;70.36;102761.88;5081426;28;20051;-86
2022/01/13 00:28:22;;;;;;;28.88;19.15;;;;;;;4.01;69.82;102759.34;5080551;28;20048;-87
2022/01/13 00:30:53;;;;;;;29.95;18.08;;;;;;;4.17;69.70;102751.66;5080393;28;20508;-87
2022/01/13 00:33:24;;;;;;;32.35;19.33;;;;;;;4.15;69.33;102746.38;5079452;28;20063;-86
2022/01/13 00:35:53;;;;;;;28.90;18.10;;;;;;;4.11;69.16;102742.34;5079927;28;20535;-85
2022/01/13 00:38:23;;;;;;;29.63;17.65;;;;;;;4.13;69.14;102744.88;5080307;28;20064;-85
2022/01/13 00:40:50;;;;;;;32.57;18.73;;;;;;;3.95;68.88;102745.53;5080610;28;20509;-85
2022/01/13 00:43:18;;;;;;;32.05;18.02;;;;;;;3.95;68.75;102740.91;5081199;28;20056;-86
2022/01/13 00:45:47;;;;;;;29.83;17.15;;;;;;;3.95;68.20;102732.63;5081588;28;20064;-85
2022/01/13 00:48:14;;;;;;;33.50;18.43;;;;;;;3.80;69.13;102745.78;5080986;28;20057;-85
2022/01/13 00:50:41;;;;;;;32.20;18.83;;;;;;;3.54;70.20;102741.97;5081814;28;20063;-85
2022/01/13 00:53:09;;;;;;;32.63;18.38;;;;;;;3.45;70.66;102734.97;5081520;28;20049;-86
2022/01/13 00:55:48;;;;;;;35.50;20.02;;;;;;;3.47;69.98;102741.13;5081516;28;20048;-85
2022/01/13 00:58:16;;;;;;;33.25;18.88;;;;;;;3.41;70.09;102747.47;5080951;28;20068;-86
2022/01/13 01:00:44;;;;;;;31.55;19.08;;;;;;;3.08;71.51;102745.50;5081762;28;20049;-85
2022/01/13 01:03:12;;;;;;;35.17;19.70;;;;;;;3.12;71.93;102745.94;5080976;28;20053;-86
2022/01/13 01:05:39;;;;;;;39.45;19.50;;;;;;;3.20;70.98;102754.00;5081846;28;20060;-85
2022/01/13 01:08:09;;;;;;;33.13;18.85;;;;;;;3.18;71.29;102753.38;5081519;28;20143;-87
2022/01/13 01:10:38;;;;;;;32.58;18.00;;;;;;;3.21;71.46;102744.69;5083945;28;20052;-87
2022/01/13 01:13:12;;;;;;;34.15;19.35;;;;;;;3.06;71.47;102753.13;5085597;28;20055;-86
2022/01/13 01:15:42;;;;;;;35.50;19.45;;;;;;;3.05;71.81;102757.78;5085180;28;20053;-86
2022/01/13 01:18:20;;;;;;;34.97;19.42;;;;;;;2.88;72.38;102763.84;5085653;28;20052;-86
2022/01/13 01:21:02;;;;;;;35.53;19.42;;;;;;;2.72;73.57;102760.41;5084772;28;20052;-87
2022/01/13 01:23:30;;;;;;;35.78;20.05;;;;;;;2.77;73.00;102760.66;5085151;28;20048;-86
2022/01/13 01:26:05;;;;;;;33.92;19.10;;;;;;;2.81;73.03;102769.34;5084220;28;20067;-88
2022/01/13 01:28:42;;;;;;;38.90;20.23;;;;;;;2.98;72.27;102767.06;5084524;28;20052;-86
2022/01/13 01:31:11;;;;;;;36.67;20.45;;;;;;;3.02;72.53;102771.09;5085014;28;20052;-88
2022/01/13 01:33:42;;;;;;;35.45;19.85;;;;;;;2.94;73.05;102765.78;5084720;28;20056;-86
2022/01/13 01:36:13;;;;;;;35.78;19.02;;;;;;;2.94;73.19;102765.78;5084665;28;20060;-86
2022/01/13 01:38:45;;;;;;;32.13;18.83;;;;;;;3.07;72.87;102776.84;5085508;28;20059;-86
2022/01/13 01:41:13;;;;;;;35.15;17.67;;;;;;;3.08;72.24;102770.28;5086311;28;20060;-85
2022/01/13 01:43:41;;;;;;;33.80;19.40;;;;;;;3.09;72.32;102769.25;5084406;28;21576;-85
2022/01/13 01:46:09;;;;;;;34.60;19.55;;;;;;;3.18;72.18;102775.41;5085073;28;20049;-86
2022/01/13 01:48:36;;;;;;;37.38;20.23;;;;;;;3.05;72.16;102770.72;5084933;28;20056;-85
2022/01/13 01:51:04;;;;;;;34.58;19.92;;;;;;;3.11;72.05;102766.25;5085334;28;20055;-85
2022/01/13 01:53:32;;;;;;;34.72;18.85;;;;;;;3.03;72.82;102778.31;5085950;28;20059;-86
2022/01/13 01:56:00;;;;;;;35.95;19.08;;;;;;;3.08;72.66;102775.78;5086062;28;20071;-87
2022/01/13 01:58:29;;;;;;;33.78;18.33;;;;;;;3.05;72.83;102773.47;5085215;28;20055;-88
2022/01/13 02:00:57;;;;;;;37.67;19.83;;;;;;;3.07;72.69;102768.59;5085273;28;20063;-86
2022/01/13 02:03:26;;;;;;;35.42;19.63;;;;;;;3.15;72.32;102768.41;5086418;28;20043;-86
2022/01/13 02:05:54;;;;;;;34.42;19.13;;;;;;;2.95;72.88;102759.25;5085861;28;20049;-86
2022/01/13 02:08:21;;;;;;;37.28;19.65;;;;;;;3.01;73.12;102767.50;5085687;28;20059;-85
2022/01/13 02:10:49;;;;;;;39.35;19.75;;;;;;;2.99;72.98;102766.03;5085427;28;20054;-86
2022/01/13 02:13:21;;;;;;;39.67;20.20;;;;;;;3.07;73.09;102762.22;5086397;28;20532;-86
2022/01/13 02:16:01;;;;;;;38.28;20.25;;;;;;;3.11;72.68;102749.72;5086671;28;20063;-86
2022/01/13 02:18:31;;;;;;;34.78;18.48;;;;;;;3.14;72.46;102754.84;5086034;28;20044;-87
2022/01/13 02:21:01;;;;;;;35.47;19.48;;;;;;;3.17;72.64;102752.53;5084156;28;20048;-87
2022/01/13 02:23:37;;;;;;;;;;;;;;;3.18;72.80;102751.47;5085463;28;20052;-87
2022/01/13 02:26:07;;;;;;;32.60;18.83;;;;;;;3.23;72.49;102757.19;5085354;28;19926;-86
2022/01/13 02:28:35;;;;;;;36.35;19.80;;;;;;;3.19;72.66;102755.91;5084895;28;20040;-87
2022/01/13 02:31:03;;;;;;;33.70;18.35;;;;;;;3.23;72.71;102740.69;5084882;28;20056;-86
2022/01/13 02:33:31;;;;;;;33.90;18.73;;;;;;;3.23;72.53;102756.34;5083601;28;20458;-85
2022/01/13 02:35:59;;;;;;;37.42;20.63;;;;;;;3.21;73.08;102753.81;5083475;28;20052;-86
2022/01/13 02:38:27;;;;;;;35.80;20.60;;;;;;;3.27;72.98;102748.50;5083545;28;20433;-85
2022/01/13 02:40:57;;;;;;;33.80;19.05;;;;;;;3.31;72.41;102744.28;5083089;28;20048;-86
2022/01/13 02:43:25;;;;;;;35.42;19.33;;;;;;;3.29;72.35;102743.63;5082657;28;20048;-86
2022/01/13 02:46:05;;;;;;;33.75;20.38;;;;;;;3.22;72.14;102736.22;5082241;28;20064;-86
2022/01/13 02:48:35;;;;;;;;;;;;;;;3.15;72.19;102740.88;5083356;28;20468;-87
2022/01/13 02:51:05;;;;;;;34.03;18.13;;;;;;;3.18;72.24;102740.44;5083288;28;19920;-86
2022/01/13 02:53:32;;;;;;;34.33;20.10;;;;;;;3.16;71.27;102734.28;5083258;28;20056;-86
2022/01/13 02:56:04;;;;;;;29.83;17.73;;;;;;;3.11;71.75;102739.59;5081577;28;20607;-87
2022/01/13 02:58:33;;;;;;;31.80;18.65;;;;;;;3.03;71.75;102734.28;5081648;28;20067;-87
2022/01/13 03:01:01;;;;;;;31.17;17.90;;;;;;;3.02;71.43;102729.81;5080342;28;20485;-87
2022/01/13 03:03:30;;;;;;;30.55;16.90;;;;;;;2.92;71.76;102732.09;5082093;28;20059;-87
2022/01/13 03:05:57;;;;;;;34.70;19.98;;;;;;;2.82;72.40;102732.53;5081283;28;20056;-88
2022/01/13 03:08:26;;;;;;;31.70;18.25;;;;;;;2.86;72.18;102731.06;5081777;28;20060;-88
2022/01/13 03:10:54;;;;;;;32.17;18.88;;;;;;;2.88;71.92;102725.31;5081663;28;20053;-87
2022/01/13 03:13:23;;;;;;;37.42;20.10;;;;;;;2.87;71.82;102727.22;5082073;28;20052;-86
2022/01/13 03:15:50;;;;;;;31.23;17.73;;;;;;;2.80;72.08;102729.97;5081769;28;20071;-86
2022/01/13 03:18:18;;;;;;;32.15;17.40;;;;;;;2.84;72.24;102731.25;5080755;28;20549;-86
2022/01/13 03:20:45;;;;;;;32.38;17.33;;;;;;;2.82;71.93;102727.84;5080057;28;20059;-86
2022/01/13 03:23:16;;;;;;;34.38;19.55;;;;;;;2.83;71.84;102737.81;5080062;28;20056;-86
2022/01/13 03:25:46;;;;;;;35.25;19.63;;;;;;;2.91;72.54;102739.53;5079435;28;20084;-87
2022/01/13 03:28:17;;;;;;;31.60;18.05;;;;;;;3.01;71.89;102747.41;5078407;28;20056;-87
2022/01/13 03:30:45;;;;;;;33.95;19.15;;;;;;;3.05;71.78;102752.28;5079056;28;20413;-87
2022/01/13 03:33:13;;;;;;;43.78;21.75;;;;;;;3.00;72.45;102748.44;5078223;28;20049;-85
2022/01/13 03:35:42;;;;;;;36.47;20.48;;;;;;;2.95;72.61;102739.97;5081502;28;20500;-86
2022/01/13 03:38:10;;;;;;;36.97;20.17;;;;;;;2.97;72.52;102741.44;5081661;28;20060;-86
2022/01/13 03:40:37;;;;;;;46.58;21.08;;;;;;;3.00;72.96;102740.19;5081790;28;20064;-86
2022/01/13 03:43:07;;;;;;;41.33;21.58;;;;;;;3.00;72.90;102734.69;5081848;28;20068;-87
2022/01/13 03:45:34;;;;;;;41.17;21.73;;;;;;;3.02;72.71;102738.94;5084561;28;20393;-87
2022/01/13 03:48:03;;;;;;;50.78;22.75;;;;;;;2.91;72.93;102727.69;5087828;28;20049;-87
2022/01/13 03:50:31;;;;;;;43.40;22.05;;;;;;;2.96;73.03;102720.50;5086619;28;20432;-86
2022/01/13 03:53:48;;;;;;;42.92;23.67;;;;;;;2.98;73.60;102723.91;5086165;28;20045;-87
2022/01/13 03:57:04;;;;;;;43.30;21.20;;;;;;;2.83;73.99;102723.19;5087542;28;20066;-87
2022/01/13 04:00:10;;;;;;;45.72;22.23;;;;;;;3.00;73.67;102723.66;5026359;28;20057;-88
2022/01/13 04:02:46;;;;;;;39.72;20.38;;;;;;;3.11;73.34;102719.44;5053517;28;20048;-87
2022/01/13 04:05:13;;;;;;;40.53;21.00;;;;;;;3.01;74.30;102728.97;5087856;28;20045;-87
2022/01/13 04:07:40;;;;;;;46.60;23.75;;;;;;;3.03;74.11;102724.09;5087862;28;20478;-87
2022/01/13 04:10:41;;;;;;;38.72;20.35;;;;;;;3.09;73.93;102722.44;5086963;28;20059;-87
2022/01/13 04:13:21;;;;;;;41.35;21.58;;;;;;;3.18;73.76;102715.66;5084166;28;20053;-87
2022/01/13 04:15:49;;;;;;;46.13;22.35;;;;;;;3.04;73.88;102714.81;5083778;28;20072;-87
2022/01/13 04:18:18;;;;;;;44.55;23.17;;;;;;;3.21;73.80;102712.50;5085274;28;20059;-87
2022/01/13 04:20:45;;;;;;;43.10;22.08;;;;;;;3.23;73.78;102713.13;5085818;28;20048;-87
2022/01/13 04:23:13;;;;;;;50.80;23.75;;;;;;;3.28;73.70;102707.00;5083390;28;20057;-87
2022/01/13 04:25:43;;;;;;;43.10;21.42;;;;;;;3.36;73.34;102700.41;5083239;28;20049;-88
2022/01/13 04:28:12;;;;;;;42.15;22.48;;;;;;;3.51;73.00;102702.94;5082876;28;20071;-88
2022/01/13 04:30:48;;;;;;;46.88;22.10;;;;;;;3.58;72.43;102693.63;5082542;28;20048;-88
2022/01/13 04:33:16;;;;;;;41.92;22.33;;;;;;;3.60;72.66;102694.28;5082790;28;20536;-88
2022/01/13 04:35:45;;;;;;;42.70;23.55;;;;;;;3.55;73.06;102698.72;5083858;28;20059;-87
2022/01/13 04:38:12;;;;;;;41.72;22.40;;;;;;;3.65;72.59;102693.63;5082576;28;20057;-86
2022/01/13 04:40:45;;;;;;;47.63;23.98;;;;;;;3.57;72.53;102696.59;5082963;28;20052;-85
2022/01/13 04:43:13;;;;;;;45.03;24.10;;;;;;;3.77;71.92;102696.59;5082629;28;20044;-86
2022/01/13 04:45:41;;;;;;;42.55;23.75;;;;;;;3.80;71.79;102693.41;5085773;28;20060;-86
2022/01/13 04:48:09;;;;;;;47.92;23.95;;;;;;;3.80;72.14;102697.03;5085827;28;20063;-87
2022/01/13 04:50:36;;;;;;;44.70;22.55;;;;;;;3.84;71.71;102691.91;5093147;28;20075;-87
2022/01/13 04:53:05;;;;;;;45.15;22.75;;;;;;;3.83;72.07;102690.22;5085737;28;20116;-87
2022/01/13 04:55:34;;;;;;;46.28;22.02;;;;;;;3.85;71.64;102688.09;5085383;28;20409;-87
2022/01/13 04:58:02;;;;;;;40.33;21.58;;;;;;;3.84;71.84;102691.91;5084491;28;20048;-88
2022/01/13 05:00:30;;;;;;;42.72;22.42;;;;;;;3.82;71.70;102688.50;5083753;28;20055;-87
2022/01/13 05:02:58;;;;;;;44.92;23.95;;;;;;;3.85;71.73;102677.91;5085045;28;20064;-87
2022/01/13 05:05:27;;;;;;;47.90;23.33;;;;;;;3.86;71.79;102690.66;5084213;28;20048;-86
2022/01/13 05:07:54;;;;;;;43.95;23.17;;;;;;;3.74;71.94;102685.97;5083831;28;20049;-86
2022/01/13 05:10:23;;;;;;;49.17;25.17;;;;;;;3.78;72.31;102687.25;5084512;28;20041;-86
2022/01/13 05:12:55;;;;;;;52.92;26.75;;;;;;;3.73;72.43;102687.06;5083824;28;20413;-86
2022/01/13 05:15:25;;;;;;;46.92;24.33;;;;;;;3.63;72.78;102695.75;5085213;28;20049;-86
2022/01/13 05:20:45;;;;;;;46.92;23.98;;;;;;;3.74;72.94;102694.25;5084890;28;20060;-86
2022/01/13 05:23:13;;;;;;;43.15;23.92;;;;;;;3.69;73.37;102689.38;5082429;28;20045;-87
2022/01/13 05:25:43;;;;;;;44.38;23.38;;;;;;;3.70;73.15;102685.59;5082433;28;20036;-86
2022/01/13 05:28:11;;;;;;;42.05;23.48;;;;;;;3.71;72.93;102679.00;5082120;28;20059;-87
2022/01/13 05:30:39;;;;;;;40.63;21.63;;;;;;;3.89;72.17;102666.47;5081829;28;20052;-87
2022/01/13 05:33:06;;;;;;;41.05;21.98;;;;;;;3.88;71.64;102664.75;5081225;28;20048;-87
2022/01/13 05:35:36;;;;;;;44.58;22.88;;;;;;;3.74;72.62;102658.41;5081329;28;20048;-87
2022/01/13 05:38:05;;;;;;;46.28;23.63;;;;;;;3.64;72.93;102658.88;5080382;28;20108;-86
2022/01/13 05:40:33;;;;;;;44.23;21.63;;;;;;;3.71;72.61;102647.84;5081427;28;20053;-86
2022/01/13 05:43:03;;;;;;;43.75;23.73;;;;;;;3.62;72.59;102653.56;5081637;28;20159;-86
2022/01/13 05:45:32;;;;;;;41.45;21.80;;;;;;;3.56;72.60;102651.66;5082329;28;20056;-87
2022/01/13 05:48:00;;;;;;;;;;;;;;;3.47;73.18;102646.59;5083175;28;20115;-87
2022/01/13 05:50:29;;;;;;;39.83;22.45;;;;;;;3.45;73.20;102655.91;5083529;28;19931;-87
2022/01/13 05:52:57;;;;;;;41.97;22.85;;;;;;;3.34;74.03;102663.97;5082319;28;20060;-87
2022/01/13 05:55:25;;;;;;;42.08;21.88;;;;;;;3.32;73.66;102668.84;5083057;28;20064;-87
2022/01/13 05:57:52;;;;;;;39.05;21.55;;;;;;;3.38;73.42;102655.09;5082202;28;20053;-88
2022/01/13 06:00:23;;;;;;;46.67;23.40;;;;;;;3.36;74.03;102661.84;5082255;28;20053;-88
2022/01/13 06:02:51;;;;;;;41.58;21.67;;;;;;;3.33;74.30;102659.53;5081286;28;20053;-87
2022/01/13 06:05:19;;;;;;;43.25;22.67;;;;;;;3.36;73.66;102667.34;5082145;28;20403;-87
2022/01/13 06:07:47;;;;;;;41.22;20.55;;;;;;;3.46;73.73;102670.53;5081670;28;20052;-87
2022/01/13 06:10:19;;;;;;;44.17;22.08;;;;;;;3.38;73.82;102684.53;5082140;28;20053;-87
2022/01/13 06:12:47;;;;;;;41.30;22.58;;;;;;;3.35;73.60;102684.97;5081809;28;20067;-87
2022/01/13 06:15:18;;;;;;;36.00;20.30;;;;;;;3.34;74.31;102694.25;5082438;28;20056;-87
2022/01/13 06:17:51;;;;;;;42.75;22.15;;;;;;;3.36;74.45;102689.38;5082330;28;20489;-87
2022/01/13 06:20:20;;;;;;;39.80;21.48;;;;;;;3.47;73.46;102691.53;5081846;28;20465;-87
2022/01/13 06:22:50;;;;;;;38.30;19.67;;;;;;;3.51;73.92;102680.91;5081332;28;20048;-88
2022/01/13 06:25:17;;;;;;;;;;;;;;;3.44;73.76;102679.03;5081638;28;20056;-87
2022/01/13 06:27:45;;;;;;;40.25;20.23;;;;;;;3.51;73.23;102687.28;5081411;28;19920;-87
2022/01/13 06:30:15;;;;;;;43.58;22.08;;;;;;;3.51;73.37;102676.28;5081637;28;20049;-86
2022/01/13 06:32:44;;;;;;;37.47;20.77;;;;;;;3.44;73.18;102676.28;5080947;28;20099;-86
2022/01/13 06:35:13;;;;;;;36.20;20.20;;;;;;;3.45;73.61;102672.44;5079608;28;20041;-87
2022/01/13 06:48:02;;;;;;;37.03;18.00;;;;;;;3.21;73.97;102649.16;5040413;28;20052;-84
2022/01/13 06:50:31;;;;;;;36.83;18.50;;;;;;;3.17;74.01;102656.16;5064865;28;20060;-84
2022/01/13 06:52:58;;;;;;;32.45;19.25;;;;;;;3.21;73.84;102670.31;5060853;28;20049;-84
2022/01/13 06:55:26;;;;;;;34.47;18.23;;;;;;;3.15;74.02;102673.91;5054088;28;20060;-87
2022/01/13 06:57:53;;;;;;;37.80;19.38;;;;;;;3.06;74.41;102667.75;5046315;28;20411;-86
2022/01/13 07:00:21;;;;;;;33.13;19.25;;;;;;;3.01;75.16;102664.81;5065460;28;20053;-85
2022/01/13 07:02:50;;;;;;;39.53;19.40;;;;;;;3.05;75.13;102663.34;5063936;28;20049;-86
2022/01/13 07:05:17;;;;;;;41.45;20.75;;;;;;;3.00;75.05;102665.84;5065884;28;20057;-86
2022/01/13 07:07:46;;;;;;;42.80;21.58;;;;;;;2.91;75.57;102659.69;5064106;28;20044;-87
2022/01/13 07:10:14;;;;;;;44.43;20.87;;;;;;;2.94;75.01;102661.19;5065891;28;20389;-85
2022/01/13 07:12:42;;;;;;;39.47;20.17;;;;;;;2.97;75.40;102671.78;5061611;28;20468;-85
2022/01/13 07:15:11;;;;;;;38.08;19.95;;;;;;;2.97;75.03;102667.13;5052043;28;20620;-83
2022/01/13 07:17:39;;;;;;;37.45;20.13;;;;;;;2.89;75.49;102678.31;5053303;28;20050;-89
2022/01/13 07:20:08;;;;;;;36.25;19.45;;;;;;;2.91;75.81;102678.13;5054770;28;20124;-88
2022/01/13 07:22:38;;;;;;;34.92;18.92;;;;;;;2.94;75.79;102674.94;5068995;28;20053;-88
2022/01/13 07:25:08;;;;;;;37.58;20.10;;;;;;;2.97;75.61;102686.41;5060117;28;20045;-88
2022/01/13 07:27:38;;;;;;;38.05;19.80;;;;;;;3.00;75.46;102685.13;5067816;28;20409;-88
2022/01/13 07:30:08;;;;;;;33.80;18.40;;;;;;;3.02;75.48;102686.63;5057902;28;20056;-88
2022/01/13 07:32:35;;;;;;;33.80;19.45;;;;;;;3.05;75.19;102688.13;5067131;28;20055;-88
2022/01/13 07:35:03;;;;;;;35.08;19.77;;;;;;;3.06;75.22;102695.28;5064789;28;20044;-87
2022/01/13 07:37:30;;;;;;;35.38;20.88;;;;;;;3.10;75.27;102699.34;5061215;28;21588;-87
2022/01/13 07:39:58;;;;;;;32.33;18.00;;;;;;;3.05;74.68;102704.63;5057636;28;20041;-86
2022/01/13 07:42:28;;;;;;;33.85;18.48;;;;;;;3.13;74.87;102704.44;5064006;28;20049;-85
2022/01/13 07:44:55;;;;;;;31.10;17.90;;;;;;;3.16;74.55;102706.75;5053585;28;20064;-86
2022/01/13 07:47:26;;;;;;;35.03;19.42;;;;;;;3.18;73.44;102706.56;5076259;28;20051;-87
2022/01/13 07:49:53;;;;;;;31.27;17.45;;;;;;;3.14;73.79;102702.53;5105054;28;20054;-89
2022/01/13 07:52:21;;;;;;;32.83;17.52;;;;;;;3.23;73.36;102706.75;5087207;28;20052;-88
2022/01/13 07:54:48;;;;;;;29.33;16.45;;;;;;;3.22;72.94;102705.91;5107242;28;20048;-89
2022/01/13 07:57:15;;;;;;;29.73;16.88;;;;;;;3.33;72.31;102704.44;5108819;28;20048;-88
2022/01/13 07:59:47;;;;;;;29.60;16.90;;;;;;;3.36;71.64;102717.81;5109211;28;20040;-89
2022/01/13 08:02:14;;;;;;;28.40;16.40;;;;;;;3.42;71.26;102713.34;5108468;28;20126;-89
2022/01/13 08:04:42;;;;;;;27.65;16.65;;;;;;;3.43;70.74;102709.53;5108095;28;20056;-88
2022/01/13 08:07:28;;;;;;;27.23;16.13;;;;;;;3.47;70.20;102713.56;5105232;28;20051;-88
2022/01/13 08:10:07;;;;;;;26.98;15.52;;;;;;;3.47;70.23;102716.31;5099417;28;20064;-91
2022/01/13 08:12:35;;;;;;;;;;;;;;;3.57;69.87;102715.88;5099873;28;20058;-86
2022/01/13 08:15:04;;;;;;;24.98;14.65;;;;;;;4.28;69.01;102709.63;5096156;28;19920;-87
2022/01/13 08:20:16;;;;;;;27.73;15.73;;;;;;;5.10;66.43;102698.81;5097725;28;20512;-86
2022/01/13 08:22:44;;;;;;;32.70;18.58;;;;;;;5.14;65.64;102691.75;5097621;28;20048;-86
2022/01/13 08:25:11;;;;;;;25.52;15.93;;;;;;;5.40;64.59;102690.75;5096917;28;20051;-86
2022/01/13 08:27:39;;;;;;;24.83;15.05;;;;;;;6.12;63.43;102708.81;5097190;28;20056;-86
2022/01/13 08:30:10;;;;;;;25.30;13.85;;;;;;;6.69;61.72;102698.31;5095700;28;20056;-85
2022/01/13 08:32:37;;;;;;;27.17;15.90;;;;;;;7.36;59.72;102697.34;5095894;28;20056;-85
2022/01/13 08:35:06;;;;;;;25.20;14.23;;;;;;;8.72;55.77;102688.81;5095426;28;20051;-86
2022/01/13 08:37:34;;;;;;;19.75;13.65;;;;;;;9.86;53.66;102687.75;5097197;28;20366;-87
2022/01/13 08:40:02;;;;;;;24.02;15.38;;;;;;;10.69;51.13;102689.75;5096594;28;20536;-86
2022/01/13 08:42:29;;;;;;;19.20;12.35;;;;;;;11.84;48.84;102683.81;5096088;28;20519;-86
2022/01/13 08:44:57;;;;;;;18.98;12.43;;;;;;;12.38;46.93;102682.75;5095436;28;20048;-86
2022/01/13 08:47:26;;;;;;;20.13;12.68;;;;;;;13.13;44.76;102683.28;5096642;28;20082;-86
2022/01/13 08:49:53;;;;;;;20.42;14.25;;;;;;;13.72;42.60;102679.13;5084819;28;20059;-86
2022/01/13 08:52:21;;;;;;;20.15;13.85;;;;;;;15.04;40.55;102683.72;5076418;28;20049;-86
2022/01/13 08:54:48;;;;;;;17.98;13.82;;;;;;;15.53;39.04;102685.59;5077756;28;20067;-85
2022/01/13 08:57:16;;;;;;;20.48;13.82;;;;;;;16.29;37.52;102678.38;5079115;28;20056;-84
2022/01/13 08:59:44;;;;;;;19.02;13.38;;;;;;;17.23;35.74;102676.81;5078951;28;20064;-84
2022/01/13 09:02:12;;;;;;;19.23;14.30;;;;;;;17.74;34.83;102684.41;5079080;28;20504;-84
2022/01/13 09:04:41;;;;;;;18.70;14.02;;;;;;;18.38;33.57;102683.81;5088427;28;20525;-85
2022/01/13 09:07:12;;;;;;;17.73;12.88;;;;;;;19.09;32.29;102677.75;5079381;28;20052;-84
2022/01/13 09:09:40;;;;;;;16.88;13.50;;;;;;;19.29;31.83;102682.91;5079186;28;20327;-86
2022/01/13 09:12:08;;;;;;;19.45;13.70;;;;;;;19.92;30.63;102677.38;5079890;28;20486;-86
2022/01/13 09:14:38;;;;;;;18.90;14.27;;;;;;;20.46;29.65;102680.94;5078658;28;20055;-85
2022/01/13 09:17:12;;;;;;;17.00;13.02;;;;;;;20.92;28.90;102676.72;5079315;28;20053;-85
2022/01/13 09:19:43;;;;;;;16.15;12.95;;;;;;;21.53;27.90;102690.91;5077344;28;20044;-85
2022/01/13 09:22:10;;;;;;;17.40;13.50;;;;;;;21.83;27.04;102688.19;5078179;28;20053;-86
2022/01/13 09:24:37;;;;;;;17.80;13.13;;;;;;;22.21;26.75;102688.22;5081412;28;20063;-85
2022/01/13 09:27:06;;;;;;;20.73;14.63;;;;;;;22.92;25.65;102689.53;5076309;28;20048;-87
2022/01/13 09:29:34;;;;;;;15.77;12.23;;;;;;;23.34;25.17;102686.72;5075596;28;20048;-87
2022/01/13 09:32:03;;;;;;;16.58;12.35;;;;;;;23.75;24.72;102690.66;5079155;28;20068;-88
2022/01/13 09:34:30;;;;;;;16.67;12.60;;;;;;;24.02;24.50;102688.38;5078393;28;20052;-86
2022/01/13 09:36:59;;;;;;;15.60;12.00;;;;;;;24.18;24.15;102688.53;5071861;28;20045;-88
2022/01/13 09:39:27;;;;;;;15.57;12.48;;;;;;;25.01;22.68;102686.34;5069900;28;20071;-86
2022/01/13 09:41:56;;;;;;;15.63;12.13;;;;;;;25.11;22.83;102698.09;5067162;28;20057;-88
2022/01/13 09:44:27;;;;;;;18.35;13.32;;;;;;;25.44;22.08;102699.91;5078711;28;20052;-88
2022/01/13 09:46:55;;;;;;;16.38;13.13;;;;;;;25.60;22.00;102690.53;5080117;28;20052;-88
2022/01/13 09:49:22;;;;;;;16.23;12.80;;;;;;;25.62;21.79;102706.13;5079611;28;20063;-87
2022/01/13 09:51:53;;;;;;;15.95;11.98;;;;;;;26.14;21.26;102698.59;5079567;28;20040;-89
2022/01/13 09:54:22;;;;;;;17.27;13.10;;;;;;;26.77;20.45;102702.63;5081331;28;20051;-87
2022/01/13 09:56:49;;;;;;;14.25;11.98;;;;;;;26.84;20.44;102699.94;5083573;28;20045;-87
2022/01/13 09:59:17;;;;;;;16.60;12.77;;;;;;;26.52;20.22;102700.81;5078177;28;20039;-87
2022/01/13 10:01:44;;;;;;;13.38;11.60;;;;;;;26.60;20.40;102698.97;5082638;28;20358;-87
2022/01/13 10:04:12;;;;;;;14.57;11.68;;;;;;;26.23;20.65;102704.16;5078794;28;20064;-84
2022/01/13 10:06:47;;;;;;;14.52;12.07;;;;;;;26.02;20.69;102701.56;5079975;28;20052;-83
2022/01/13 10:09:16;;;;;;;16.05;12.23;;;;;;;22.20;24.85;102711.28;5079470;28;20052;-90
2022/01/13 10:11:53;;;;;;;14.52;11.70;;;;;;;21.06;26.59;102716.22;5086197;28;20131;-89
2022/01/13 10:17:17;;;;;;;16.77;11.98;;;;;;;17.75;31.00;102719.91;5075184;28;20036;-87
2022/01/13 10:19:46;;;;;;;18.98;13.65;;;;;;;17.15;32.15;102726.22;5078760;28;20111;-87
2022/01/13 10:22:16;;;;;;;19.40;13.38;;;;;;;15.98;33.91;102726.50;5079935;28;20059;-86
2022/01/13 10:24:46;;;;;;;17.77;12.80;;;;;;;15.26;35.36;102723.41;5077912;28;20524;-86
2022/01/13 10:27:18;;;;;;;16.73;12.05;;;;;;;15.75;35.11;102722.50;5081432;28;20065;-86
2022/01/13 10:30:26;;;;;;;20.00;13.48;;;;;;;18.33;31.34;102715.78;5078493;28;20053;-89
2022/01/13 10:32:55;;;;;;;19.08;12.10;;;;;;;20.15;28.40;102710.09;5072200;28;20048;-86
2022/01/13 10:35:23;;;;;;;16.40;12.13;;;;;;;22.07;25.83;102702.66;5080178;28;20517;-85
2022/01/13 10:37:56;;;;;;;16.17;11.20;;;;;;;22.60;25.34;102693.91;5080662;28;20085;-86
2022/01/13 10:40:29;;;;;;;16.35;11.23;;;;;;;24.08;23.63;102695.50;5079984;28;20115;-87
2022/01/13 10:43:10;;;;;;;18.42;12.02;;;;;;;23.71;23.94;102687.69;5079577;28;20056;-86
2022/01/13 10:45:48;;;;;;;15.20;11.35;;;;;;;25.10;22.41;102687.88;5079731;28;20060;-86
2022/01/13 10:48:19;;;;;;;15.68;11.90;;;;;;;25.66;21.38;102680.53;5078903;28;20506;-87
2022/01/13 10:50:52;;;;;;;17.35;13.75;;;;;;;25.28;21.54;102681.91;5078067;28;20071;-87
2022/01/13 10:53:25;;;;;;;14.90;11.50;;;;;;;25.75;20.95;102672.66;5078419;28;20049;-87
2022/01/13 10:55:56;;;;;;;16.30;11.93;;;;;;;24.93;22.44;102673.91;5066942;28;20067;-87
2022/01/13 10:58:29;;;;;;;14.73;11.65;;;;;;;25.88;21.07;102671.38;5077382;28;20060;-87
2022/01/13 11:00:58;;;;;;;16.17;12.52;;;;;;;25.89;20.75;102675.94;5067872;28;20044;-87
2022/01/13 11:03:27;;;;;;;16.38;12.55;;;;;;;24.04;22.94;102666.94;5075980;28;20052;-86
2022/01/13 11:05:56;;;;;;;14.90;12.63;;;;;;;24.55;22.78;102671.44;5079734;28;20052;-85
2022/01/13 11:08:30;;;;;;;15.65;12.55;;;;;;;24.89;22.17;102665.22;5080473;28;20048;-86
2022/01/13 11:11:00;;;;;;;17.88;13.15;;;;;;;25.52;21.33;102667.53;5082278;28;20053;-85
2022/01/13 11:13:33;;;;;;;14.82;11.52;;;;;;;26.31;20.86;102671.66;5082534;28;20055;-85
2022/01/13 11:16:00;;;;;;;17.20;12.52;;;;;;;26.56;20.37;102663.72;5077162;28;20057;-86
2022/01/13 11:18:30;;;;;;;17.73;13.40;;;;;;;25.55;21.15;102665.13;5076427;28;20407;-87
2022/01/13 11:20:59;;;;;;;15.23;11.90;;;;;;;24.69;22.51;102657.66;5077634;28;20067;-87
2022/01/13 11:23:29;;;;;;;16.80;12.52;;;;;;;24.18;22.67;102660.88;5076563;28;20056;-87
2022/01/13 11:25:58;;;;;;;17.23;13.48;;;;;;;23.02;23.85;102660.72;5077341;28;20045;-87
2022/01/13 11:28:25;;;;;;;;;;;;;;;24.64;22.38;102643.69;5082105;28;20047;-87
2022/01/13 11:30:55;;;;;;;17.60;12.70;;;;;;;24.63;21.95;102651.41;5076901;28;19929;-87
2022/01/13 11:33:23;;;;;;;;;;;;;;;22.70;24.14;102648.06;5077529;28;20055;-86
2022/01/13 11:35:56;;;;;;;18.48;13.30;;;;;;;23.91;23.20;102640.44;5076741;28;19924;-87
2022/01/13 11:38:26;;;;;;;17.63;13.38;;;;;;;24.03;23.03;102635.94;5057902;28;20049;-88
2022/01/13 11:40:55;;;;;;;18.67;12.55;;;;;;;24.88;22.04;102626.53;5063983;28;20046;-87
2022/01/13 11:43:26;;;;;;;18.17;13.55;;;;;;;24.55;22.37;102623.00;5078487;28;20052;-86
2022/01/13 11:45:58;;;;;;;16.67;12.57;;;;;;;25.47;21.54;102613.59;5063922;28;20071;-86
2022/01/13 11:48:29;;;;;;;18.35;13.05;;;;;;;24.12;23.23;102619.56;5083018;28;20053;-86
2022/01/13 11:51:14;;;;;;;15.80;12.23;;;;;;;25.18;21.98;102611.91;5081352;28;20056;-86
2022/01/13 11:53:54;;;;;;;17.95;12.45;;;;;;;25.51;21.77;102607.97;5081309;28;20064;-87